sensor_id;sensor_type;location;lat;lon;timestamp;P1;P2;P0
78842;PMS5003;70542;53.774;-0.352;2023-12-07T00:02:11;16;13;
78842;PMS5003;70542;53.774;-0.352;2023-12-07T00:07:54;14;14;
78842;PMS5003;70542;53.774;-0.352;2023-12-07T00:13:33;9;9;
78842;PMS5003;70542;53.774;-0.352;2023-12-07T00:19:12;12;12;
78842;PMS5003;70542;53.774;-0.352;2023-12-07T00:25:01;18;14;
78842;PMS5003;70542;53.774;-0.352;2023-12-07T00:30:39;16;12;
78842;PMS5003;70542;53.774;-0.352;2023-12-07T00:36:23;22;22;
78842;PMS5003;70542;53.774;-0.352;2023-12-07T00:42:02;14;14;
78842;PMS5003;70542;53.774;-0.352;2023-12-07T00:47:41;17;17;
78842;PMS5003;70542;53.774;-0.352;2023-12-07T00:53:21;17;13;
78842;PMS5003;70542;53.774;-0.352;2023-12-07T00:58:59;7;7;
78842;PMS5003;70542;53.774;-0.352;2023-12-07T01:04:38;22;22;
78842;PMS5003;70542;53.774;-0.352;2023-12-07T01:10:17;13;13;
78842;PMS5003;70542;53.774;-0.352;2023-12-07T01:15:56;12;12;
78842;PMS5003;70542;53.774;-0.352;2023-12-07T01:21:35;11;11;
78842;PMS5003;70542;53.774;-0.352;2023-12-07T01:27:13;0;0;
78842;PMS5003;70542;53.774;-0.352;2023-12-07T01:32:52;9;5;
78842;PMS5003;70542;53.774;-0.352;2023-12-07T01:38:31;9;9;
78842;PMS5003;70542;53.774;-0.352;2023-12-07T01:44:10;7;7;
78842;PMS5003;70542;53.774;-0.352;2023-12-07T01:49:49;5;5;
78842;PMS5003;70542;53.774;-0.352;2023-12-07T01:55:27;6;6;
78842;PMS5003;70542;53.774;-0.352;2023-12-07T02:01:13;12;12;
78842;PMS5003;70542;53.774;-0.352;2023-12-07T02:06:52;8;8;
78842;PMS5003;70542;53.774;-0.352;2023-12-07T02:12:35;7;7;
78842;PMS5003;70542;53.774;-0.352;2023-12-07T02:18:14;16;16;
78842;PMS5003;70542;53.774;-0.352;2023-12-07T02:23:57;12;12;
78842;PMS5003;70542;53.774;-0.352;2023-12-07T02:29:45;6;6;
78842;PMS5003;70542;53.774;-0.352;2023-12-07T02:35:24;16;12;
78842;PMS5003;70542;53.774;-0.352;2023-12-07T02:41:08;10;10;
78842;PMS5003;70542;53.774;-0.352;2023-12-07T02:46:47;3;3;
78842;PMS5003;70542;53.774;-0.352;2023-12-07T02:52:27;10;10;
78842;PMS5003;70542;53.774;-0.352;2023-12-07T02:58:05;7;7;
78842;PMS5003;70542;53.774;-0.352;2023-12-07T03:03:44;14;14;
78842;PMS5003;70542;53.774;-0.352;2023-12-07T03:09:23;6;6;
78842;PMS5003;70542;53.774;-0.352;2023-12-07T03:15:02;6;6;
78842;PMS5003;70542;53.774;-0.352;2023-12-07T03:20:45;6;6;
78842;PMS5003;70542;53.774;-0.352;2023-12-07T03:26:24;5;5;
78842;PMS5003;70542;53.774;-0.352;2023-12-07T03:32:06;6;6;
78842;PMS5003;70542;53.774;-0.352;2023-12-07T03:37:45;8;8;
78842;PMS5003;70542;53.774;-0.352;2023-12-07T03:43:23;4;4;
78842;PMS5003;70542;53.774;-0.352;2023-12-07T03:49:02;5;5;
78842;PMS5003;70542;53.774;-0.352;2023-12-07T03:54:41;3;3;
78842;PMS5003;70542;53.774;-0.352;2023-12-07T04:00:20;4;4;
78842;PMS5003;70542;53.774;-0.352;2023-12-07T04:05:58;4;4;
78842;PMS5003;70542;53.774;-0.352;2023-12-07T04:11:37;13;13;
78842;PMS5003;70542;53.774;-0.352;2023-12-07T04:17:16;6;6;
78842;PMS5003;70542;53.774;-0.352;2023-12-07T04:22:54;10;10;
78842;PMS5003;70542;53.774;-0.352;2023-12-07T04:28:33;5;5;
78842;PMS5003;70542;53.774;-0.352;2023-12-07T04:34:12;9;9;
78842;PMS5003;70542;53.774;-0.352;2023-12-07T04:39:50;10;10;
78842;PMS5003;70542;53.774;-0.352;2023-12-07T04:45:29;7;7;
78842;PMS5003;70542;53.774;-0.352;2023-12-07T04:51:08;9;9;
78842;PMS5003;70542;53.774;-0.352;2023-12-07T04:56:46;5;5;
78842;PMS5003;70542;53.774;-0.352;2023-12-07T05:02:25;10;10;
78842;PMS5003;70542;53.774;-0.352;2023-12-07T05:08:04;14;14;
78842;PMS5003;70542;53.774;-0.352;2023-12-07T05:13:42;13;13;
78842;PMS5003;70542;53.774;-0.352;2023-12-07T05:19:21;11;11;
78842;PMS5003;70542;53.774;-0.352;2023-12-07T05:25:00;7;7;
78842;PMS5003;70542;53.774;-0.352;2023-12-07T05:30:39;6;3;
78842;PMS5003;70542;53.774;-0.352;2023-12-07T05:36:18;9;9;
78842;PMS5003;70542;53.774;-0.352;2023-12-07T05:41:56;17;14;
78842;PMS5003;70542;53.774;-0.352;2023-12-07T05:47:35;19;16;
78842;PMS5003;70542;53.774;-0.352;2023-12-07T05:53:14;19;16;
78842;PMS5003;70542;53.774;-0.352;2023-12-07T05:58:53;14;11;
78842;PMS5003;70542;53.774;-0.352;2023-12-07T06:04:31;15;11;
78842;PMS5003;70542;53.774;-0.352;2023-12-07T06:10:10;19;19;
78842;PMS5003;70542;53.774;-0.352;2023-12-07T06:15:49;21;13;
78842;PMS5003;70542;53.774;-0.352;2023-12-07T06:21:27;22;22;
78842;PMS5003;70542;53.774;-0.352;2023-12-07T06:27:06;15;15;
78842;PMS5003;70542;53.774;-0.352;2023-12-07T06:32:45;12;12;
78842;PMS5003;70542;53.774;-0.352;2023-12-07T06:38:29;15;15;
78842;PMS5003;70542;53.774;-0.352;2023-12-07T06:44:13;19;19;
78842;PMS5003;70542;53.774;-0.352;2023-12-07T06:50:10;17;17;
78842;PMS5003;70542;53.774;-0.352;2023-12-07T06:56:10;12;12;
78842;PMS5003;70542;53.774;-0.352;2023-12-07T07:01:49;16;16;
78842;PMS5003;70542;53.774;-0.352;2023-12-07T07:07:39;19;19;
78842;PMS5003;70542;53.774;-0.352;2023-12-07T07:13:17;26;14;
78842;PMS5003;70542;53.774;-0.352;2023-12-07T07:18:56;13;13;
78842;PMS5003;70542;53.774;-0.352;2023-12-07T07:24:41;8;8;
78842;PMS5003;70542;53.774;-0.352;2023-12-07T07:30:27;9;7;
78842;PMS5003;70542;53.774;-0.352;2023-12-07T07:36:21;9;9;
78842;PMS5003;70542;53.774;-0.352;2023-12-07T07:42:21;13;13;
78842;PMS5003;70542;53.774;-0.352;2023-12-07T07:48:00;15;12;
78842;PMS5003;70542;53.774;-0.352;2023-12-07T07:53:42;12;12;
78842;PMS5003;70542;53.774;-0.352;2023-12-07T08:04:41;13;13;
78842;PMS5003;70542;53.774;-0.352;2023-12-07T08:10:22;9;9;
78842;PMS5003;70542;53.774;-0.352;2023-12-07T08:16:01;8;8;
78842;PMS5003;70542;53.774;-0.352;2023-12-07T08:21:58;10;10;
78842;PMS5003;70542;53.774;-0.352;2023-12-07T08:27:38;15;15;
78842;PMS5003;70542;53.774;-0.352;2023-12-07T08:33:17;12;12;
78842;PMS5003;70542;53.774;-0.352;2023-12-07T08:38:56;15;12;
78842;PMS5003;70542;53.774;-0.352;2023-12-07T08:44:40;9;9;
78842;PMS5003;70542;53.774;-0.352;2023-12-07T08:50:23;8;8;
78842;PMS5003;70542;53.774;-0.352;2023-12-07T08:56:04;10;10;
78842;PMS5003;70542;53.774;-0.352;2023-12-07T09:01:45;17;17;
78842;PMS5003;70542;53.774;-0.352;2023-12-07T09:07:23;16;16;
78842;PMS5003;70542;53.774;-0.352;2023-12-07T09:13:02;13;13;
78842;PMS5003;70542;53.774;-0.352;2023-12-07T09:18:41;12;12;
78842;PMS5003;70542;53.774;-0.352;2023-12-07T09:24:20;18;18;
78842;PMS5003;70542;53.774;-0.352;2023-12-07T09:30:03;23;20;
78842;PMS5003;70542;53.774;-0.352;2023-12-07T09:35:44;19;15;
78842;PMS5003;70542;53.774;-0.352;2023-12-07T09:41:22;17;17;
78842;PMS5003;70542;53.774;-0.352;2023-12-07T09:47:03;18;18;
78842;PMS5003;70542;53.774;-0.352;2023-12-07T09:52:41;17;17;
78842;PMS5003;70542;53.774;-0.352;2023-12-07T09:58:20;17;17;
78842;PMS5003;70542;53.774;-0.352;2023-12-07T10:09:53;22;18;
78842;PMS5003;70542;53.774;-0.352;2023-12-07T10:15:32;21;21;
78842;PMS5003;70542;53.774;-0.352;2023-12-07T10:21:11;20;17;
78842;PMS5003;70542;53.774;-0.352;2023-12-07T10:26:51;16;16;
78842;PMS5003;70542;53.774;-0.352;2023-12-07T10:32:30;19;19;
78842;PMS5003;70542;53.774;-0.352;2023-12-07T10:38:09;20;20;
78842;PMS5003;70542;53.774;-0.352;2023-12-07T10:43:52;30;27;
78842;PMS5003;70542;53.774;-0.352;2023-12-07T10:49:40;21;21;
78842;PMS5003;70542;53.774;-0.352;2023-12-07T10:55:30;26;26;
78842;PMS5003;70542;53.774;-0.352;2023-12-07T11:01:15;35;35;
78842;PMS5003;70542;53.774;-0.352;2023-12-07T11:06:58;26;20;
78842;PMS5003;70542;53.774;-0.352;2023-12-07T11:12:45;22;22;
78842;PMS5003;70542;53.774;-0.352;2023-12-07T11:18:31;23;23;
78842;PMS5003;70542;53.774;-0.352;2023-12-07T11:24:10;32;30;
78842;PMS5003;70542;53.774;-0.352;2023-12-07T11:29:57;18;18;
78842;PMS5003;70542;53.774;-0.352;2023-12-07T11:41:43;24;24;
78842;PMS5003;70542;53.774;-0.352;2023-12-07T11:54:03;19;19;
78842;PMS5003;70542;53.774;-0.352;2023-12-07T11:59:43;32;28;
78842;PMS5003;70542;53.774;-0.352;2023-12-07T12:05:31;27;23;
78842;PMS5003;70542;53.774;-0.352;2023-12-07T12:11:09;23;23;
78842;PMS5003;70542;53.774;-0.352;2023-12-07T12:16:53;23;23;
78842;PMS5003;70542;53.774;-0.352;2023-12-07T12:22:32;34;30;
78842;PMS5003;70542;53.774;-0.352;2023-12-07T12:28:15;19;16;
78842;PMS5003;70542;53.774;-0.352;2023-12-07T12:33:55;28;28;
78842;PMS5003;70542;53.774;-0.352;2023-12-07T12:39:35;29;19;
78842;PMS5003;70542;53.774;-0.352;2023-12-07T12:45:14;23;23;
78842;PMS5003;70542;53.774;-0.352;2023-12-07T12:50:57;33;33;
78842;PMS5003;70542;53.774;-0.352;2023-12-07T12:56:42;17;17;
78842;PMS5003;70542;53.774;-0.352;2023-12-07T13:02:20;21;17;
78842;PMS5003;70542;53.774;-0.352;2023-12-07T13:08:00;29;21;
78842;PMS5003;70542;53.774;-0.352;2023-12-07T13:13:42;21;14;
78842;PMS5003;70542;53.774;-0.352;2023-12-07T13:19:23;17;17;
78842;PMS5003;70542;53.774;-0.352;2023-12-07T13:25:02;24;21;
78842;PMS5003;70542;53.774;-0.352;2023-12-07T13:30:45;16;16;
78842;PMS5003;70542;53.774;-0.352;2023-12-07T13:36:40;15;15;
78842;PMS5003;70542;53.774;-0.352;2023-12-07T13:42:24;21;18;
78842;PMS5003;70542;53.774;-0.352;2023-12-07T13:48:03;17;14;
78842;PMS5003;70542;53.774;-0.352;2023-12-07T13:53:43;18;18;
78842;PMS5003;70542;53.774;-0.352;2023-12-07T13:59:22;22;22;
78842;PMS5003;70542;53.774;-0.352;2023-12-07T14:05:01;16;16;
78842;PMS5003;70542;53.774;-0.352;2023-12-07T14:10:39;36;19;
78842;PMS5003;70542;53.774;-0.352;2023-12-07T14:16:18;21;18;
78842;PMS5003;70542;53.774;-0.352;2023-12-07T14:22:04;19;19;
78842;PMS5003;70542;53.774;-0.352;2023-12-07T14:27:43;26;22;
78842;PMS5003;70542;53.774;-0.352;2023-12-07T14:33:22;15;15;
78842;PMS5003;70542;53.774;-0.352;2023-12-07T14:39:00;17;17;
78842;PMS5003;70542;53.774;-0.352;2023-12-07T14:44:39;13;13;
78842;PMS5003;70542;53.774;-0.352;2023-12-07T14:50:22;13;13;
78842;PMS5003;70542;53.774;-0.352;2023-12-07T14:56:00;15;15;
78842;PMS5003;70542;53.774;-0.352;2023-12-07T15:01:39;10;10;
78842;PMS5003;70542;53.774;-0.352;2023-12-07T15:07:18;20;20;
78842;PMS5003;70542;53.774;-0.352;2023-12-07T15:13:05;13;13;
78842;PMS5003;70542;53.774;-0.352;2023-12-07T15:19:08;19;19;
78842;PMS5003;70542;53.774;-0.352;2023-12-07T15:24:51;24;20;
78842;PMS5003;70542;53.774;-0.352;2023-12-07T15:30:29;11;11;
78842;PMS5003;70542;53.774;-0.352;2023-12-07T15:36:09;17;17;
78842;PMS5003;70542;53.774;-0.352;2023-12-07T15:41:48;16;16;
78842;PMS5003;70542;53.774;-0.352;2023-12-07T15:47:27;12;12;
78842;PMS5003;70542;53.774;-0.352;2023-12-07T15:53:10;14;14;
78842;PMS5003;70542;53.774;-0.352;2023-12-07T15:58:49;19;16;
78842;PMS5003;70542;53.774;-0.352;2023-12-07T16:04:41;20;20;
78842;PMS5003;70542;53.774;-0.352;2023-12-07T16:10:20;12;12;
78842;PMS5003;70542;53.774;-0.352;2023-12-07T16:16:04;15;15;
78842;PMS5003;70542;53.774;-0.352;2023-12-07T16:21:44;11;9;
78842;PMS5003;70542;53.774;-0.352;2023-12-07T16:27:23;14;11;
78842;PMS5003;70542;53.774;-0.352;2023-12-07T16:33:01;19;19;
78842;PMS5003;70542;53.774;-0.352;2023-12-07T16:38:40;23;23;
78842;PMS5003;70542;53.774;-0.352;2023-12-07T16:44:19;21;19;
78842;PMS5003;70542;53.774;-0.352;2023-12-07T16:49:58;16;13;
78842;PMS5003;70542;53.774;-0.352;2023-12-07T16:55:37;15;15;
78842;PMS5003;70542;53.774;-0.352;2023-12-07T17:01:16;14;14;
78842;PMS5003;70542;53.774;-0.352;2023-12-07T17:06:55;15;15;
78842;PMS5003;70542;53.774;-0.352;2023-12-07T17:12:34;26;23;
78842;PMS5003;70542;53.774;-0.352;2023-12-07T17:18:14;30;28;
78842;PMS5003;70542;53.774;-0.352;2023-12-07T17:23:53;39;36;
78842;PMS5003;70542;53.774;-0.352;2023-12-07T17:29:32;14;14;
78842;PMS5003;70542;53.774;-0.352;2023-12-07T17:35:13;17;17;
78842;PMS5003;70542;53.774;-0.352;2023-12-07T17:40:52;25;25;
78842;PMS5003;70542;53.774;-0.352;2023-12-07T17:46:31;24;24;
78842;PMS5003;70542;53.774;-0.352;2023-12-07T17:52:10;17;14;
78842;PMS5003;70542;53.774;-0.352;2023-12-07T17:57:53;18;18;
78842;PMS5003;70542;53.774;-0.352;2023-12-07T18:03:32;20;17;
78842;PMS5003;70542;53.774;-0.352;2023-12-07T18:09:10;21;21;
78842;PMS5003;70542;53.774;-0.352;2023-12-07T18:15:05;19;19;
78842;PMS5003;70542;53.774;-0.352;2023-12-07T18:22:50;14;14;
78842;PMS5003;70542;53.774;-0.352;2023-12-07T18:34:32;22;22;
78842;PMS5003;70542;53.774;-0.352;2023-12-07T18:42:32;22;18;
78842;PMS5003;70542;53.774;-0.352;2023-12-07T18:48:36;14;14;
78842;PMS5003;70542;53.774;-0.352;2023-12-07T18:54:39;27;27;
78842;PMS5003;70542;53.774;-0.352;2023-12-07T19:00:33;10;10;
78842;PMS5003;70542;53.774;-0.352;2023-12-07T19:06:12;13;13;
78842;PMS5003;70542;53.774;-0.352;2023-12-07T19:11:59;14;14;
78842;PMS5003;70542;53.774;-0.352;2023-12-07T19:17:39;11;11;
78842;PMS5003;70542;53.774;-0.352;2023-12-07T19:23:18;9;9;
78842;PMS5003;70542;53.774;-0.352;2023-12-07T19:29:05;13;13;
78842;PMS5003;70542;53.774;-0.352;2023-12-07T19:34:44;14;14;
78842;PMS5003;70542;53.774;-0.352;2023-12-07T19:40:23;13;10;
78842;PMS5003;70542;53.774;-0.352;2023-12-07T19:46:01;15;15;
78842;PMS5003;70542;53.774;-0.352;2023-12-07T19:51:41;21;21;
78842;PMS5003;70542;53.774;-0.352;2023-12-07T19:57:24;13;13;
78842;PMS5003;70542;53.774;-0.352;2023-12-07T20:03:03;17;17;
78842;PMS5003;70542;53.774;-0.352;2023-12-07T20:08:42;15;15;
78842;PMS5003;70542;53.774;-0.352;2023-12-07T20:14:21;16;16;
78842;PMS5003;70542;53.774;-0.352;2023-12-07T20:19:59;10;10;
78842;PMS5003;70542;53.774;-0.352;2023-12-07T20:25:42;16;12;
78842;PMS5003;70542;53.774;-0.352;2023-12-07T20:31:21;9;9;
78842;PMS5003;70542;53.774;-0.352;2023-12-07T20:37:01;17;12;
78842;PMS5003;70542;53.774;-0.352;2023-12-07T20:42:40;10;10;
78842;PMS5003;70542;53.774;-0.352;2023-12-07T20:48:27;12;12;
78842;PMS5003;70542;53.774;-0.352;2023-12-07T20:54:06;17;17;
78842;PMS5003;70542;53.774;-0.352;2023-12-07T21:00:00;12;12;
78842;PMS5003;70542;53.774;-0.352;2023-12-07T21:05:43;16;12;
78842;PMS5003;70542;53.774;-0.352;2023-12-07T21:11:22;11;11;
78842;PMS5003;70542;53.774;-0.352;2023-12-07T21:17:01;10;10;
78842;PMS5003;70542;53.774;-0.352;2023-12-07T21:23:36;10;10;
78842;PMS5003;70542;53.774;-0.352;2023-12-07T21:29:15;12;12;
78842;PMS5003;70542;53.774;-0.352;2023-12-07T21:35:00;8;5;
78842;PMS5003;70542;53.774;-0.352;2023-12-07T21:47:06;5;5;
78842;PMS5003;70542;53.774;-0.352;2023-12-07T21:58:46;10;10;
78842;PMS5003;70542;53.774;-0.352;2023-12-07T22:04:29;10;9;
78842;PMS5003;70542;53.774;-0.352;2023-12-07T22:10:08;13;13;
78842;PMS5003;70542;53.774;-0.352;2023-12-07T22:15:47;10;10;
78842;PMS5003;70542;53.774;-0.352;2023-12-07T22:21:31;4;4;
78842;PMS5003;70542;53.774;-0.352;2023-12-07T22:27:17;4;4;
78842;PMS5003;70542;53.774;-0.352;2023-12-07T22:32:56;4;4;
78842;PMS5003;70542;53.774;-0.352;2023-12-07T22:38:35;8;8;
78842;PMS5003;70542;53.774;-0.352;2023-12-07T22:44:15;7;7;
78842;PMS5003;70542;53.774;-0.352;2023-12-07T22:49:58;6;6;
78842;PMS5003;70542;53.774;-0.352;2023-12-07T22:58:10;5;2;
78842;PMS5003;70542;53.774;-0.352;2023-12-07T23:03:53;1;1;
78842;PMS5003;70542;53.774;-0.352;2023-12-07T23:09:40;3;3;
78842;PMS5003;70542;53.774;-0.352;2023-12-07T23:15:19;7;7;
78842;PMS5003;70542;53.774;-0.352;2023-12-07T23:21:05;1;1;
78842;PMS5003;70542;53.774;-0.352;2023-12-07T23:26:44;6;6;
78842;PMS5003;70542;53.774;-0.352;2023-12-07T23:32:28;4;4;
78842;PMS5003;70542;53.774;-0.352;2023-12-07T23:38:14;7;7;
78842;PMS5003;70542;53.774;-0.352;2023-12-07T23:43:55;7;7;
78842;PMS5003;70542;53.774;-0.352;2023-12-07T23:49:45;10;10;
78842;PMS5003;70542;53.774;-0.352;2023-12-07T23:55:23;8;8;
